createdAt,value
2018-03-31T00:01:31.970Z,17.00
2018-03-31T00:04:00.919Z,15.30
2018-03-31T00:06:29.830Z,16.30
2018-03-31T00:08:58.774Z,16.30
2018-03-31T00:11:27.678Z,17.00
2018-03-31T00:13:56.607Z,16.77
2018-03-31T00:16:25.529Z,17.63
2018-03-31T00:18:54.436Z,17.33
2018-03-31T00:21:23.330Z,18.03
2018-03-31T00:23:52.268Z,17.17
2018-03-31T00:26:21.288Z,17.23
2018-03-31T00:28:50.238Z,17.87
2018-03-31T00:31:19.129Z,17.57
2018-03-31T00:33:48.062Z,16.90
2018-03-31T00:36:16.976Z,16.50
2018-03-31T00:38:45.870Z,16.27
2018-03-31T00:41:14.805Z,17.00
2018-03-31T00:43:44.325Z,16.73
2018-03-31T00:46:12.605Z,17.20
2018-03-31T00:48:41.538Z,18.40
2018-03-31T00:51:10.508Z,18.90
2018-03-31T00:53:39.410Z,17.60
2018-03-31T00:56:08.320Z,19.03
2018-03-31T00:58:37.257Z,18.17
2018-03-31T01:01:06.157Z,18.90
2018-03-31T01:03:35.091Z,18.57
2018-03-31T01:06:04.004Z,18.27
2018-03-31T01:08:32.941Z,18.10
2018-03-31T01:11:01.858Z,17.03
2018-03-31T01:13:30.809Z,18.53
2018-03-31T01:15:59.742Z,17.73
2018-03-31T01:18:28.644Z,19.27
2018-03-31T01:20:57.552Z,18.77
2018-03-31T01:23:26.506Z,20.30
2018-03-31T01:25:55.420Z,19.00
2018-03-31T01:28:24.336Z,20.03
2018-03-31T01:30:53.245Z,21.70
2018-03-31T01:33:22.162Z,22.00
2018-03-31T01:35:51.098Z,20.60
2018-03-31T01:38:19.990Z,20.87
2018-03-31T01:40:48.886Z,19.57
2018-03-31T01:43:17.924Z,20.13
2018-03-31T01:45:46.818Z,19.70
2018-03-31T01:48:15.732Z,20.30
2018-03-31T01:50:44.664Z,19.70
2018-03-31T01:53:13.570Z,20.00
2018-03-31T01:55:42.473Z,20.23
2018-03-31T01:58:11.403Z,18.23
2018-03-31T02:00:40.299Z,18.30
2018-03-31T02:03:09.266Z,17.77
2018-03-31T02:05:38.175Z,15.80
2018-03-31T02:08:07.090Z,16.20
2018-03-31T02:10:36.005Z,15.23
2018-03-31T02:13:04.911Z,16.40
2018-03-31T02:15:33.821Z,16.50
2018-03-31T02:18:02.768Z,15.07
2018-03-31T02:20:31.673Z,16.00
2018-03-31T02:23:00.583Z,16.90
2018-03-31T02:25:29.506Z,15.80
2018-03-31T02:27:58.397Z,16.70
2018-03-31T02:30:27.298Z,15.20
2018-03-31T02:32:56.234Z,16.97
2018-03-31T02:35:25.133Z,15.80
2018-03-31T02:37:54.071Z,17.10
2018-03-31T02:40:22.991Z,16.67
2018-03-31T02:42:51.941Z,16.73
2018-03-31T02:45:21.239Z,17.57
2018-03-31T02:47:50.141Z,15.83
2018-03-31T02:50:19.071Z,16.40
2018-03-31T02:52:48.012Z,15.77
2018-03-31T02:55:16.966Z,20.30
2018-03-31T02:57:45.862Z,15.33
2018-03-31T03:00:14.782Z,14.50
2018-03-31T03:02:43.694Z,14.93
2018-03-31T03:05:12.632Z,14.27
2018-03-31T03:07:41.565Z,13.27
2018-03-31T03:10:10.475Z,13.90
2018-03-31T03:12:39.376Z,14.30
2018-03-31T03:15:08.299Z,13.67
2018-03-31T03:17:37.193Z,12.30
2018-03-31T03:20:06.089Z,12.57
2018-03-31T03:22:35.027Z,13.90
2018-03-31T03:25:03.968Z,13.70
2018-03-31T03:27:32.875Z,14.27
2018-03-31T03:30:01.822Z,13.73
2018-03-31T03:32:30.730Z,13.43
2018-03-31T03:34:59.663Z,13.47
2018-03-31T03:37:28.565Z,12.67
2018-03-31T03:39:57.468Z,13.93
2018-03-31T03:42:26.410Z,14.30
2018-03-31T03:44:55.309Z,14.87
2018-03-31T03:47:24.439Z,13.50
2018-03-31T03:49:53.381Z,13.50
2018-03-31T03:52:22.276Z,12.80
2018-03-31T03:54:51.191Z,13.90
2018-03-31T03:57:20.138Z,13.20
2018-03-31T03:59:49.056Z,12.80
2018-03-31T04:02:17.949Z,12.97
2018-03-31T04:04:46.903Z,12.60
2018-03-31T04:07:15.829Z,13.20
2018-03-31T04:09:44.876Z,13.10
2018-03-31T04:12:13.853Z,13.00
2018-03-31T04:14:42.824Z,13.87
2018-03-31T04:17:11.745Z,15.00
2018-03-31T04:19:40.654Z,14.90
2018-03-31T04:22:09.585Z,14.70
2018-03-31T04:24:38.498Z,15.77
2018-03-31T04:27:07.397Z,16.10
2018-03-31T04:29:36.302Z,17.30
2018-03-31T04:32:05.246Z,16.90
2018-03-31T04:34:34.185Z,15.03
2018-03-31T04:37:03.091Z,15.00
2018-03-31T04:39:32.037Z,15.13
2018-03-31T04:42:00.940Z,14.53
2018-03-31T04:44:29.836Z,14.70
2018-03-31T04:46:58.773Z,15.17
2018-03-31T04:49:28.168Z,14.97
2018-03-31T04:51:57.118Z,14.90
2018-03-31T04:54:26.753Z,14.40
2018-03-31T04:56:55.649Z,13.60
2018-03-31T04:59:24.554Z,14.00
2018-03-31T05:01:53.486Z,13.63
2018-03-31T05:04:22.389Z,14.97
2018-03-31T05:06:51.290Z,14.50
2018-03-31T05:09:20.214Z,14.87
2018-03-31T05:11:49.111Z,13.77
2018-03-31T05:14:18.030Z,15.27
2018-03-31T05:16:47.009Z,15.60
2018-03-31T05:19:15.913Z,15.47
2018-03-31T05:21:44.825Z,15.70
2018-03-31T05:24:13.741Z,14.80
2018-03-31T05:26:42.656Z,14.90
2018-03-31T05:29:11.561Z,15.20
2018-03-31T05:31:40.489Z,15.47
2018-03-31T05:34:09.422Z,15.80
2018-03-31T05:36:38.337Z,16.20
2018-03-31T05:39:07.242Z,16.20
2018-03-31T05:41:36.137Z,15.37
2018-03-31T05:44:05.053Z,16.87
2018-03-31T05:46:33.961Z,16.90
2018-03-31T05:49:02.863Z,16.37
2018-03-31T05:51:31.781Z,16.10
2018-03-31T05:54:00.721Z,17.27
2018-03-31T05:56:29.619Z,17.13
2018-03-31T05:58:58.526Z,15.93
2018-03-31T06:01:27.472Z,16.57
2018-03-31T06:03:56.387Z,16.07
2018-03-31T06:06:25.296Z,15.27
2018-03-31T06:08:54.228Z,16.23
2018-03-31T06:11:23.136Z,15.83
2018-03-31T06:13:52.034Z,15.50
2018-03-31T06:16:20.968Z,15.30
2018-03-31T06:18:49.882Z,14.97
2018-03-31T06:21:18.824Z,16.57
2018-03-31T06:23:47.723Z,16.80
2018-03-31T06:26:16.718Z,18.20
2018-03-31T06:28:45.754Z,17.37
2018-03-31T06:31:15.098Z,17.90
2018-03-31T06:33:44.038Z,17.23
2018-03-31T06:36:12.963Z,17.63
2018-03-31T06:38:41.866Z,17.23
2018-03-31T06:41:10.797Z,17.93
2018-03-31T06:43:39.698Z,17.77
2018-03-31T06:46:08.592Z,17.70
2018-03-31T06:48:37.539Z,17.70
2018-03-31T06:51:06.443Z,16.70
2018-03-31T06:53:35.378Z,16.90
2018-03-31T06:56:04.304Z,16.50
2018-03-31T06:58:33.223Z,16.43
2018-03-31T07:01:02.135Z,14.43
2018-03-31T07:03:31.061Z,14.60
2018-03-31T07:05:59.997Z,13.47
2018-03-31T07:08:28.913Z,13.50
2018-03-31T07:10:57.849Z,14.60
2018-03-31T07:13:26.752Z,14.87
2018-03-31T07:15:55.661Z,14.10
2018-03-31T07:18:24.602Z,14.43
2018-03-31T07:20:53.549Z,15.40
2018-03-31T07:23:22.456Z,14.67
2018-03-31T07:25:51.409Z,14.50
2018-03-31T07:28:20.324Z,14.50
2018-03-31T07:30:49.239Z,15.90
2018-03-31T07:33:18.249Z,18.97
2018-03-31T07:35:47.201Z,18.67
2018-03-31T07:38:16.098Z,20.00
2018-03-31T07:40:45.067Z,19.97
2018-03-31T07:43:13.980Z,21.73
2018-03-31T07:45:42.928Z,20.70
2018-03-31T07:48:11.868Z,20.60
2018-03-31T07:50:40.765Z,20.57
2018-03-31T07:53:09.686Z,21.27
2018-03-31T07:55:38.596Z,21.13
2018-03-31T07:58:07.571Z,17.97
2018-03-31T08:00:36.530Z,18.37
2018-03-31T08:03:05.422Z,18.63
2018-03-31T08:05:34.374Z,15.07
2018-03-31T08:08:03.269Z,13.80
2018-03-31T08:10:32.193Z,11.53
2018-03-31T08:13:01.194Z,15.40
2018-03-31T08:15:30.110Z,13.73
2018-03-31T08:17:59.472Z,13.20
2018-03-31T08:20:29.151Z,12.40
2018-03-31T08:22:58.097Z,12.10
2018-03-31T08:25:26.982Z,12.47
2018-03-31T08:27:56.031Z,12.13
2018-03-31T08:30:25.140Z,11.83
2018-03-31T08:32:53.992Z,12.40
2018-03-31T08:35:22.945Z,11.40
2018-03-31T08:37:51.845Z,11.20
2018-03-31T08:40:21.756Z,10.67
2018-03-31T08:42:50.662Z,10.77
2018-03-31T08:45:19.586Z,10.93
2018-03-31T08:47:48.541Z,11.60
2018-03-31T08:50:17.445Z,11.17
2018-03-31T08:52:46.373Z,12.17
2018-03-31T08:55:15.306Z,11.90
2018-03-31T08:57:44.207Z,11.63
2018-03-31T09:00:13.166Z,11.60
2018-03-31T09:02:42.199Z,11.80
2018-03-31T09:05:11.091Z,12.30
2018-03-31T09:07:40.002Z,12.50
2018-03-31T09:10:08.950Z,12.20
2018-03-31T09:12:37.985Z,12.33
2018-03-31T09:15:06.908Z,13.17
2018-03-31T09:17:35.813Z,11.50
2018-03-31T09:20:04.739Z,11.40
2018-03-31T09:22:33.650Z,11.00
2018-03-31T09:25:02.601Z,11.07
2018-03-31T09:27:31.559Z,11.33
2018-03-31T09:30:00.458Z,11.03
2018-03-31T09:32:29.350Z,10.80
2018-03-31T09:34:58.277Z,11.67
2018-03-31T09:37:27.173Z,10.80
2018-03-31T09:39:56.123Z,10.80
2018-03-31T09:42:25.077Z,11.40
2018-03-31T09:44:54.028Z,11.17
2018-03-31T09:47:22.941Z,10.93
2018-03-31T09:49:51.846Z,10.30
2018-03-31T09:52:20.790Z,10.50
2018-03-31T09:54:49.703Z,9.90
2018-03-31T09:57:18.621Z,10.20
2018-03-31T09:59:47.529Z,10.03
2018-03-31T10:02:16.499Z,9.60
2018-03-31T10:04:45.724Z,10.23
2018-03-31T10:07:14.648Z,10.13
2018-03-31T10:09:43.570Z,9.57
2018-03-31T10:12:12.498Z,9.37
2018-03-31T10:14:41.397Z,10.30
2018-03-31T10:17:10.298Z,10.30
2018-03-31T10:19:39.230Z,10.03
2018-03-31T10:22:08.137Z,10.70
2018-03-31T10:24:37.047Z,10.53
2018-03-31T10:27:05.979Z,9.80
2018-03-31T10:29:34.881Z,9.80
2018-03-31T10:32:03.838Z,8.47
2018-03-31T10:34:32.875Z,9.27
2018-03-31T10:37:01.818Z,9.37
2018-03-31T10:39:30.765Z,8.53
2018-03-31T10:41:59.668Z,8.40
2018-03-31T10:44:28.609Z,8.90
2018-03-31T10:46:57.513Z,8.97
2018-03-31T10:49:26.430Z,8.30
2018-03-31T10:51:55.363Z,8.00
2018-03-31T10:54:24.286Z,7.30
2018-03-31T10:56:53.188Z,7.50
2018-03-31T10:59:22.079Z,7.63
2018-03-31T11:01:50.987Z,6.67
2018-03-31T11:04:19.926Z,7.43
2018-03-31T11:06:48.856Z,7.20
2018-03-31T11:09:17.765Z,7.57
2018-03-31T11:11:46.703Z,7.90
2018-03-31T11:14:15.673Z,8.10
2018-03-31T11:16:44.570Z,10.40
2018-03-31T11:19:13.498Z,8.80
2018-03-31T11:21:42.404Z,9.03
2018-03-31T11:24:11.310Z,8.93
2018-03-31T11:26:40.418Z,9.70
2018-03-31T11:29:09.331Z,10.20
2018-03-31T11:31:38.249Z,8.97
2018-03-31T11:34:07.160Z,8.40
2018-03-31T11:36:36.074Z,8.50
2018-03-31T11:39:05.037Z,8.07
2018-03-31T11:41:33.979Z,8.17
2018-03-31T11:44:02.895Z,8.53
2018-03-31T11:46:31.794Z,8.50
2018-03-31T11:49:00.762Z,8.67
2018-03-31T11:51:29.626Z,9.57
2018-03-31T11:53:58.544Z,13.37
2018-03-31T11:56:27.806Z,8.97
2018-03-31T11:58:56.750Z,8.20
2018-03-31T12:01:25.656Z,8.30
2018-03-31T12:03:54.585Z,9.23
2018-03-31T12:06:23.485Z,9.03
2018-03-31T12:08:52.381Z,10.40
2018-03-31T12:11:21.309Z,10.30
2018-03-31T12:13:50.205Z,9.97
2018-03-31T12:16:19.121Z,8.67
2018-03-31T12:18:48.066Z,8.97
2018-03-31T12:21:16.965Z,8.50
2018-03-31T12:23:45.857Z,7.10
2018-03-31T12:26:14.805Z,9.30
2018-03-31T12:28:43.715Z,9.17
2018-03-31T12:31:12.626Z,9.17
2018-03-31T12:33:41.561Z,8.40
2018-03-31T12:36:10.504Z,8.67
2018-03-31T12:38:39.401Z,8.07
2018-03-31T12:41:08.297Z,12.70
2018-03-31T12:43:37.225Z,8.83
2018-03-31T12:46:06.160Z,10.63
2018-03-31T12:48:35.057Z,10.80
2018-03-31T12:51:03.982Z,10.20
2018-03-31T12:53:32.886Z,8.53
2018-03-31T12:56:01.801Z,9.57
2018-03-31T12:58:30.702Z,9.00
2018-03-31T13:00:59.611Z,8.40
2018-03-31T13:03:28.546Z,8.60
2018-03-31T13:05:57.461Z,9.93
2018-03-31T13:08:26.358Z,10.47
2018-03-31T13:10:55.993Z,10.90
2018-03-31T13:13:24.928Z,10.77
2018-03-31T13:15:53.826Z,10.93
2018-03-31T13:18:22.766Z,9.73
2018-03-31T13:20:51.691Z,8.93
2018-03-31T13:23:20.594Z,8.67
2018-03-31T13:25:49.525Z,9.40
2018-03-31T13:28:18.476Z,8.47
2018-03-31T13:30:47.427Z,8.07
2018-03-31T13:33:16.602Z,8.00
2018-03-31T13:35:45.501Z,8.23
2018-03-31T13:38:14.437Z,8.60
2018-03-31T13:40:43.337Z,8.00
2018-03-31T13:43:12.273Z,9.50
2018-03-31T13:45:41.173Z,10.40
2018-03-31T13:48:10.095Z,9.10
2018-03-31T13:50:39.043Z,10.30
2018-03-31T13:53:07.995Z,10.87
2018-03-31T13:55:36.889Z,11.10
2018-03-31T13:58:05.842Z,11.40
2018-03-31T14:00:34.742Z,10.97
2018-03-31T14:03:03.674Z,11.13
2018-03-31T14:05:32.567Z,10.50
2018-03-31T14:08:01.468Z,10.50
2018-03-31T14:10:30.475Z,11.10
2018-03-31T14:12:59.374Z,12.20
2018-03-31T14:15:28.279Z,11.20
2018-03-31T14:17:57.698Z,11.43
2018-03-31T14:20:26.638Z,10.87
2018-03-31T14:22:55.556Z,9.90
2018-03-31T14:25:24.494Z,9.83
2018-03-31T14:27:53.524Z,9.53
2018-03-31T14:30:22.445Z,9.87
2018-03-31T14:32:51.350Z,9.67
2018-03-31T14:35:20.258Z,9.23
2018-03-31T14:37:49.189Z,10.70
2018-03-31T14:40:18.098Z,8.70
2018-03-31T14:42:47.882Z,8.57
2018-03-31T14:45:16.817Z,7.70
2018-03-31T14:47:45.729Z,8.27
2018-03-31T14:50:14.620Z,8.93
2018-03-31T14:52:43.552Z,8.60
2018-03-31T14:55:12.458Z,8.73
2018-03-31T14:57:41.406Z,10.30
2018-03-31T15:00:10.343Z,9.80
2018-03-31T15:02:39.244Z,11.40
2018-03-31T15:05:08.162Z,10.80
2018-03-31T15:07:37.106Z,9.80
2018-03-31T15:10:06.025Z,13.70
2018-03-31T15:12:34.932Z,14.47
2018-03-31T15:15:03.874Z,10.17
2018-03-31T15:17:32.777Z,10.20
2018-03-31T15:20:01.687Z,9.40
2018-03-31T15:22:30.675Z,9.67
2018-03-31T15:24:59.534Z,9.90
2018-03-31T15:27:28.474Z,10.40
2018-03-31T15:29:57.374Z,17.93
2018-03-31T15:32:26.296Z,11.83
2018-03-31T15:34:55.237Z,66.80
2018-03-31T15:37:24.142Z,12.60
2018-03-31T15:39:53.066Z,12.40
2018-03-31T15:42:21.981Z,12.70
2018-03-31T15:44:50.902Z,12.30
2018-03-31T15:47:19.816Z,11.70
2018-03-31T15:49:48.732Z,11.33
2018-03-31T15:52:17.677Z,12.07
2018-03-31T15:54:46.590Z,16.23
2018-03-31T15:57:15.549Z,10.73
2018-03-31T15:59:44.455Z,10.67
2018-03-31T16:02:13.390Z,10.90
2018-03-31T16:04:42.282Z,9.30
2018-03-31T16:07:11.185Z,9.20
2018-03-31T16:09:40.135Z,9.10
2018-03-31T16:12:09.054Z,9.20
2018-03-31T16:14:38.016Z,9.70
2018-03-31T16:17:06.913Z,9.37
2018-03-31T16:19:35.822Z,9.67
2018-03-31T16:22:04.802Z,10.17
2018-03-31T16:24:33.706Z,11.00
2018-03-31T16:27:02.612Z,11.20
2018-03-31T16:29:31.578Z,11.77
2018-03-31T16:32:00.474Z,11.10
2018-03-31T16:34:29.394Z,11.97
2018-03-31T16:36:58.334Z,10.70
2018-03-31T16:39:27.237Z,11.60
2018-03-31T16:41:56.179Z,11.60
2018-03-31T16:44:25.096Z,10.93
2018-03-31T16:46:53.999Z,11.27
2018-03-31T16:49:22.925Z,10.90
2018-03-31T16:51:51.821Z,11.57
2018-03-31T16:54:20.753Z,10.57
2018-03-31T16:56:49.654Z,10.90
2018-03-31T16:59:18.557Z,11.10
2018-03-31T17:01:47.644Z,12.77
2018-03-31T17:04:16.594Z,12.23
2018-03-31T17:06:45.530Z,11.93
2018-03-31T17:09:14.520Z,12.00
2018-03-31T17:11:43.429Z,11.57
2018-03-31T17:14:12.362Z,11.60
2018-03-31T17:16:41.340Z,11.33
2018-03-31T17:19:10.235Z,13.20
2018-03-31T17:21:39.140Z,12.60
2018-03-31T17:24:08.061Z,13.03
2018-03-31T17:26:36.990Z,12.80
2018-03-31T17:29:05.931Z,13.80
2018-03-31T17:31:34.905Z,13.37
2018-03-31T17:34:03.802Z,12.97
2018-03-31T17:36:32.753Z,13.17
2018-03-31T17:39:01.793Z,13.17
2018-03-31T17:41:30.688Z,14.37
2018-03-31T17:43:59.617Z,14.47
2018-03-31T17:46:28.548Z,13.00
2018-03-31T17:48:57.450Z,13.23
2018-03-31T17:51:26.360Z,13.40
2018-03-31T17:53:55.289Z,14.30
2018-03-31T17:56:24.195Z,14.63
2018-03-31T17:58:53.090Z,15.20
2018-03-31T18:01:22.037Z,15.43
2018-03-31T18:03:51.421Z,13.73
2018-03-31T18:06:20.330Z,14.30
2018-03-31T18:08:49.236Z,13.90
2018-03-31T18:11:18.171Z,16.00
2018-03-31T18:13:47.081Z,15.67
2018-03-31T18:16:15.978Z,12.87
2018-03-31T18:18:44.931Z,15.33
2018-03-31T18:21:13.870Z,14.10
2018-03-31T18:23:42.782Z,13.97
2018-03-31T18:26:11.730Z,12.20
2018-03-31T18:28:40.646Z,13.40
2018-03-31T18:31:09.560Z,12.90
2018-03-31T18:33:38.521Z,13.60
2018-03-31T18:36:07.435Z,13.87
2018-03-31T18:38:36.403Z,12.90
2018-03-31T18:41:05.347Z,13.43
2018-03-31T18:43:34.252Z,13.30
2018-03-31T18:46:03.150Z,19.10
2018-03-31T18:48:32.158Z,14.27
2018-03-31T18:51:01.076Z,30.07
2018-03-31T18:53:29.966Z,20.33
2018-03-31T18:55:58.906Z,18.43
2018-03-31T18:58:27.814Z,18.27
2018-03-31T19:00:56.725Z,17.57
2018-03-31T19:03:25.665Z,18.00
2018-03-31T19:05:54.567Z,18.60
2018-03-31T19:08:23.470Z,18.97
2018-03-31T19:10:52.463Z,17.50
2018-03-31T19:13:21.307Z,17.70
2018-03-31T19:15:50.213Z,17.13
2018-03-31T19:18:19.147Z,17.80
2018-03-31T19:20:48.054Z,18.00
2018-03-31T19:23:16.945Z,18.80
2018-03-31T19:25:45.878Z,17.00
2018-03-31T19:28:14.778Z,15.10
2018-03-31T19:30:49.420Z,15.27
2018-03-31T19:33:18.331Z,16.50
2018-03-31T19:35:52.840Z,16.10
2018-03-31T19:38:21.784Z,18.60
2018-03-31T19:40:50.688Z,19.40
2018-03-31T19:43:19.642Z,19.20
2018-03-31T19:45:48.544Z,19.83
2018-03-31T19:48:17.440Z,18.53
2018-03-31T19:50:46.372Z,18.17
2018-03-31T19:53:15.346Z,18.43
2018-03-31T19:55:44.240Z,18.47
2018-03-31T19:58:13.151Z,17.93
2018-03-31T20:00:42.091Z,18.57
2018-03-31T20:03:11.010Z,21.97
2018-03-31T20:05:39.923Z,19.40
2018-03-31T20:08:08.866Z,19.03
2018-03-31T20:10:37.774Z,17.80
2018-03-31T20:13:06.718Z,18.57
2018-03-31T20:15:35.646Z,21.90
2018-03-31T20:18:04.550Z,20.57
2018-03-31T20:20:33.497Z,27.60
2018-03-31T20:23:02.466Z,24.33
2018-03-31T20:25:31.325Z,20.00
2018-03-31T20:28:00.223Z,20.77
2018-03-31T20:30:29.132Z,22.97
2018-03-31T20:32:58.053Z,22.13
2018-03-31T20:35:26.971Z,26.93
2018-03-31T20:37:55.897Z,27.00
2018-03-31T20:40:24.828Z,22.20
2018-03-31T20:42:53.727Z,25.00
2018-03-31T20:45:22.998Z,22.53
2018-03-31T20:47:51.904Z,21.63
2018-03-31T20:50:20.803Z,20.50
2018-03-31T20:52:49.765Z,21.50
2018-03-31T20:55:18.728Z,23.60
2018-03-31T20:57:47.646Z,28.33
2018-03-31T21:00:16.589Z,18.73
2018-03-31T21:02:45.528Z,23.30
2018-03-31T21:05:14.425Z,17.10
2018-03-31T21:07:43.333Z,18.10
2018-03-31T21:10:12.276Z,18.17
2018-03-31T21:12:41.207Z,18.50
2018-03-31T21:15:10.110Z,19.40
2018-03-31T21:17:39.005Z,17.63
2018-03-31T21:20:07.937Z,20.63
2018-03-31T21:22:36.846Z,20.80
2018-03-31T21:25:05.779Z,24.50
2018-03-31T21:27:34.687Z,21.77
2018-03-31T21:30:03.580Z,22.33
2018-03-31T21:32:32.526Z,22.67
2018-03-31T21:35:01.466Z,21.93
2018-03-31T21:37:30.366Z,20.17
2018-03-31T21:39:59.271Z,20.67
2018-03-31T21:42:28.214Z,20.30
2018-03-31T21:44:57.126Z,19.70
2018-03-31T21:47:26.051Z,18.50
2018-03-31T21:49:54.993Z,19.03
2018-03-31T21:52:23.901Z,19.93
2018-03-31T21:54:52.813Z,20.00
2018-03-31T21:57:21.741Z,18.93
2018-03-31T21:59:50.655Z,19.03
2018-03-31T22:02:19.563Z,18.57
2018-03-31T22:04:48.506Z,19.70
2018-03-31T22:07:17.466Z,19.53
2018-03-31T22:09:46.342Z,20.97
2018-03-31T22:12:15.266Z,20.27
2018-03-31T22:14:49.897Z,21.30
2018-03-31T22:17:19.604Z,21.43
2018-03-31T22:19:48.719Z,21.13
2018-03-31T22:22:17.632Z,22.47
2018-03-31T22:24:46.577Z,21.90
2018-03-31T22:27:15.481Z,21.73
2018-03-31T22:29:44.421Z,20.47
2018-03-31T22:32:13.338Z,21.60
2018-03-31T22:34:42.239Z,20.57
2018-03-31T22:37:11.166Z,21.77
2018-03-31T22:39:40.070Z,20.63
2018-03-31T22:42:08.982Z,20.07
2018-03-31T22:44:37.913Z,19.20
2018-03-31T22:47:06.837Z,18.53
2018-03-31T22:49:35.731Z,19.03
2018-03-31T22:52:04.634Z,19.47
2018-03-31T22:54:33.566Z,19.63
2018-03-31T22:57:02.465Z,18.97
2018-03-31T22:59:31.433Z,19.47
2018-03-31T23:02:00.373Z,21.10
2018-03-31T23:04:29.279Z,22.00
2018-03-31T23:06:58.219Z,21.77
2018-03-31T23:09:27.135Z,23.13
2018-03-31T23:11:56.045Z,24.40
2018-03-31T23:14:24.974Z,27.83
2018-03-31T23:16:53.903Z,23.97
2018-03-31T23:19:22.834Z,22.60
2018-03-31T23:21:51.726Z,22.97
2018-03-31T23:24:20.618Z,22.63
2018-03-31T23:26:49.572Z,22.10
2018-03-31T23:29:18.468Z,21.67
2018-03-31T23:31:47.380Z,20.70
2018-03-31T23:34:16.285Z,21.63
2018-03-31T23:36:45.190Z,19.40
2018-03-31T23:39:14.130Z,19.30
2018-03-31T23:41:43.031Z,18.93
2018-03-31T23:44:11.934Z,17.97
2018-03-31T23:46:40.935Z,18.20
2018-03-31T23:49:09.842Z,17.30
2018-03-31T23:51:38.776Z,17.40
2018-03-31T23:54:07.674Z,16.60
2018-03-31T23:56:36.605Z,17.43
2018-03-31T23:59:05.542Z,17.70
